POGODA: Poland

Lotnisko: Katowice-Pyrzowice

METAR KOD: EPKT


METAR: EPKT 281400Z 09013KT 060V120 9999 SCT050CB 29/17 Q1011 RETS


BLOK
Pogoda METAR
281400Z
Dzien: 28, Godzina: 14:00 UTC.
09013KT
Wiatr z kierunku 090, o predkosci 24 km/h
060V120
Wiatr zmienny pomiedzy 060 i 120
9999
Widzialnosc pozioma ponad 10 km.
SCT050CB
3/8 - 4/8 pokrycia nieba, chmurami o podstawie: 1500 metrow, cumulonimbus
29/17
Temperatura: powietrze 29°C, punkt rosy 17°C . Wilgotnosc wzgledna 59 %
Q1011
Cisnienie: 1011 hPa
RETS
???

Pogoda na innym lotnisku

Pogoda Gdansk-Rebiechowo WEATHER Poland  
Pogoda Katowice WEATHER Poland  
Pogoda Krakow WEATHER Poland  
Pogoda Poznan WEATHER Poland  
Pogoda Rzeszow-Jasionka WEATHER Poland  
Pogoda Szczecin WEATHER Poland  
Pogoda Warszawa-Okecie WEATHER Poland  
Pogoda Wroclaw Ii WEATHER Poland  

Pogoda w inny kraju

Strona startowa

(C) by GREGOR 2007
Ogłoszenia Towarzyskie